createdAt,value
2023-02-26T00:02:02.289Z,100.00
2023-02-26T00:13:32.138Z,100.00
2023-02-26T00:25:15.595Z,100.00
2023-02-26T00:27:52.014Z,100.00
2023-02-26T00:38:58.605Z,100.00
2023-02-26T00:57:37.253Z,100.00
2023-02-26T01:05:23.281Z,100.00
2023-02-26T01:09:22.142Z,100.00
2023-02-26T01:13:21.166Z,100.00
2023-02-26T01:17:03.942Z,100.00
2023-02-26T01:39:16.234Z,100.00
2023-02-26T01:43:33.415Z,100.00
2023-02-26T01:47:01.319Z,100.00
2023-02-26T01:51:00.616Z,100.00
2023-02-26T01:57:59.983Z,100.00
2023-02-26T02:01:08.640Z,100.00
2023-02-26T02:04:33.703Z,100.00
2023-02-26T02:07:28.453Z,100.00
2023-02-26T02:09:58.837Z,100.00
2023-02-26T02:12:55.701Z,100.00
2023-02-26T02:15:34.856Z,100.00
2023-02-26T02:18:16.786Z,100.00
2023-02-26T02:21:00.129Z,100.00
2023-02-26T02:23:58.624Z,100.00
2023-02-26T02:26:55.025Z,100.00
2023-02-26T02:29:53.475Z,100.00
2023-02-26T02:32:28.324Z,100.00
2023-02-26T02:35:17.921Z,100.00
2023-02-26T02:38:04.861Z,100.00
2023-02-26T02:40:38.976Z,100.00
2023-02-26T02:43:15.018Z,100.00
2023-02-26T02:45:51.181Z,100.00
2023-02-26T02:48:31.747Z,100.00
2023-02-26T02:51:09.609Z,100.00
2023-02-26T02:53:47.175Z,100.00
2023-02-26T02:56:27.974Z,100.00
2023-02-26T02:59:14.326Z,100.00
2023-02-26T03:01:45.390Z,100.00
2023-02-26T03:04:16.834Z,100.00
2023-02-26T03:06:49.441Z,100.00
2023-02-26T03:09:24.341Z,100.00
2023-02-26T03:11:55.204Z,100.00
2023-02-26T03:14:26.768Z,100.00
2023-02-26T03:17:11.144Z,100.00
2023-02-26T03:20:16.654Z,100.00
2023-02-26T03:23:12.198Z,100.00
2023-02-26T03:25:51.337Z,100.00
2023-02-26T03:28:30.206Z,100.00
2023-02-26T03:31:21.615Z,100.00
2023-02-26T03:34:22.664Z,100.00
2023-02-26T03:37:00.608Z,100.00
2023-02-26T03:39:36.225Z,100.00
2023-02-26T03:42:15.812Z,100.00
2023-02-26T03:44:52.458Z,100.00
2023-02-26T03:47:24.526Z,100.00
2023-02-26T03:50:24.369Z,100.00
2023-02-26T03:52:57.702Z,100.00
2023-02-26T03:55:36.058Z,100.00
2023-02-26T03:58:06.665Z,100.00
2023-02-26T04:00:39.893Z,100.00
2023-02-26T04:03:31.444Z,100.00
2023-02-26T04:06:02.032Z,100.00
2023-02-26T04:08:33.034Z,100.00
2023-02-26T04:11:09.578Z,100.00
2023-02-26T04:13:40.180Z,100.00
2023-02-26T04:16:10.774Z,100.00
2023-02-26T04:18:41.950Z,100.00
2023-02-26T04:21:14.418Z,100.00
2023-02-26T04:23:45.032Z,100.00
2023-02-26T04:26:20.160Z,100.00
2023-02-26T04:28:51.154Z,100.00
2023-02-26T04:31:21.751Z,100.00
2023-02-26T04:33:54.026Z,100.00
2023-02-26T04:36:24.857Z,100.00
2023-02-26T04:38:55.600Z,100.00
2023-02-26T04:41:26.341Z,100.00
2023-02-26T04:43:58.796Z,100.00
2023-02-26T04:46:29.954Z,100.00
2023-02-26T04:49:00.580Z,100.00
2023-02-26T04:51:35.927Z,100.00
2023-02-26T04:54:06.523Z,100.00
2023-02-26T04:56:37.194Z,100.00
2023-02-26T04:59:08.631Z,100.00
2023-02-26T05:01:39.283Z,100.00
2023-02-26T05:04:11.036Z,100.00
2023-02-26T05:06:41.831Z,100.00
2023-02-26T05:09:15.228Z,100.00
2023-02-26T05:11:45.932Z,100.00
2023-02-26T05:14:17.463Z,100.00
2023-02-26T05:16:54.509Z,100.00
2023-02-26T05:19:25.181Z,100.00
2023-02-26T05:21:56.107Z,100.00
2023-02-26T05:24:26.727Z,100.00
2023-02-26T05:26:57.588Z,100.00
2023-02-26T05:29:28.404Z,100.00
2023-02-26T05:31:59.751Z,100.00
2023-02-26T05:34:31.993Z,100.00
2023-02-26T05:37:04.651Z,100.00
2023-02-26T05:39:35.590Z,100.00
2023-02-26T05:42:11.924Z,100.00
2023-02-26T05:44:42.870Z,100.00
2023-02-26T05:47:13.972Z,100.00
2023-02-26T05:49:44.656Z,100.00
2023-02-26T05:52:15.182Z,100.00
2023-02-26T05:54:45.861Z,100.00
2023-02-26T05:57:16.684Z,100.00
2023-02-26T05:59:47.336Z,100.00
2023-02-26T06:02:17.961Z,100.00
2023-02-26T06:04:49.286Z,100.00
2023-02-26T06:07:24.882Z,100.00
2023-02-26T06:09:55.643Z,100.00
2023-02-26T06:12:26.324Z,100.00
2023-02-26T06:14:57.167Z,100.00
2023-02-26T06:17:28.581Z,100.00
2023-02-26T06:19:59.666Z,100.00
2023-02-26T06:22:31.246Z,100.00
2023-02-26T06:25:05.754Z,100.00
2023-02-26T06:27:37.700Z,100.00
2023-02-26T06:30:08.936Z,100.00
2023-02-26T06:32:44.770Z,100.00
2023-02-26T06:35:15.666Z,100.00
2023-02-26T06:37:46.276Z,100.00
2023-02-26T06:40:17.600Z,100.00
2023-02-26T06:42:48.434Z,100.00
2023-02-26T06:45:19.682Z,100.00
2023-02-26T06:47:50.849Z,100.00
2023-02-26T06:50:24.159Z,100.00
2023-02-26T06:52:56.098Z,100.00
2023-02-26T06:55:27.227Z,100.00
2023-02-26T06:58:02.881Z,100.00
2023-02-26T07:00:33.440Z,100.00
2023-02-26T07:03:05.135Z,100.00
2023-02-26T07:05:35.840Z,100.00
2023-02-26T07:08:06.870Z,100.00
2023-02-26T07:10:38.820Z,100.00
2023-02-26T07:13:10.420Z,100.00
2023-02-26T07:15:44.338Z,100.00
2023-02-26T07:18:16.383Z,100.00
2023-02-26T07:20:49.376Z,100.00
2023-02-26T07:23:23.848Z,100.00
2023-02-26T07:25:54.452Z,100.00
2023-02-26T07:28:25.515Z,100.00
2023-02-26T07:31:00.424Z,100.00
2023-02-26T07:33:31.841Z,100.00
2023-02-26T07:36:03.002Z,100.00
2023-02-26T07:38:33.358Z,100.00
2023-02-26T07:41:04.043Z,100.00
2023-02-26T07:43:34.517Z,100.00
2023-02-26T07:46:05.243Z,100.00
2023-02-26T07:48:40.533Z,100.00
2023-02-26T07:51:11.133Z,100.00
2023-02-26T07:53:41.446Z,100.00
2023-02-26T07:56:11.991Z,100.00
2023-02-26T07:58:42.772Z,100.00
2023-02-26T08:01:13.318Z,100.00
2023-02-26T08:03:43.825Z,100.00
2023-02-26T08:06:17.253Z,100.00
2023-02-26T08:08:48.284Z,100.00
2023-02-26T08:11:18.922Z,100.00
2023-02-26T08:13:54.683Z,100.00
2023-02-26T08:16:25.787Z,100.00
2023-02-26T08:18:57.024Z,100.00
2023-02-26T08:21:27.682Z,100.00
2023-02-26T08:23:58.267Z,100.00
2023-02-26T08:26:28.981Z,100.00
2023-02-26T08:29:00.130Z,100.00
2023-02-26T08:31:35.452Z,100.00
2023-02-26T08:34:06.184Z,100.00
2023-02-26T08:36:36.374Z,100.00
2023-02-26T08:39:12.263Z,100.00
2023-02-26T08:41:42.703Z,100.00
2023-02-26T08:44:13.422Z,100.00
2023-02-26T08:46:43.709Z,100.00
2023-02-26T08:49:14.411Z,100.00
2023-02-26T08:51:45.503Z,100.00
2023-02-26T08:54:16.093Z,100.00
2023-02-26T08:56:52.662Z,100.00
2023-02-26T08:59:24.141Z,100.00
2023-02-26T09:01:54.513Z,100.00
2023-02-26T09:04:31.244Z,100.00
2023-02-26T09:07:01.604Z,100.00
2023-02-26T09:09:32.511Z,100.00
2023-02-26T09:12:03.241Z,100.00
2023-02-26T09:14:34.025Z,100.00
2023-02-26T09:17:04.484Z,100.00
2023-02-26T09:19:34.967Z,100.00
2023-02-26T09:22:06.423Z,100.00
2023-02-26T09:24:37.280Z,100.00
2023-02-26T09:27:08.645Z,100.00
2023-02-26T09:29:44.653Z,100.00
2023-02-26T09:32:15.355Z,100.00
2023-02-26T09:34:46.141Z,100.00
2023-02-26T09:37:16.875Z,100.00
2023-02-26T09:39:48.017Z,100.00
2023-02-26T09:42:42.304Z,100.00
2023-02-26T09:45:41.158Z,100.00
2023-02-26T09:48:15.085Z,100.00
2023-02-26T09:50:55.062Z,100.00
2023-02-26T09:53:30.610Z,100.00
2023-02-26T09:56:04.779Z,100.00
2023-02-26T09:58:39.996Z,100.00
2023-02-26T10:01:20.204Z,100.00
2023-02-26T10:04:05.224Z,100.00
2023-02-26T10:07:03.538Z,100.00
2023-02-26T10:09:53.397Z,100.00
2023-02-26T10:12:26.087Z,100.00
2023-02-26T10:15:06.785Z,100.00
2023-02-26T10:17:55.452Z,100.00
2023-02-26T10:20:59.052Z,100.00
2023-02-26T10:23:43.840Z,100.00
2023-02-26T10:26:28.820Z,100.00
2023-02-26T10:29:17.932Z,97.92
2023-02-26T10:31:59.319Z,99.14
2023-02-26T10:34:42.605Z,100.00
2023-02-26T10:37:48.167Z,100.00
2023-02-26T10:40:23.969Z,100.00
2023-02-26T10:43:04.501Z,100.00
2023-02-26T10:45:50.668Z,100.00
2023-02-26T10:48:29.950Z,100.00
2023-02-26T10:51:13.425Z,99.32
2023-02-26T10:53:48.313Z,100.00
2023-02-26T10:56:27.238Z,98.16
2023-02-26T10:58:58.978Z,99.44
2023-02-26T11:01:30.413Z,95.80
2023-02-26T11:04:08.212Z,97.72
2023-02-26T11:06:43.804Z,91.94
2023-02-26T11:09:24.475Z,91.37
2023-02-26T11:12:12.015Z,90.91
2023-02-26T11:14:40.077Z,92.89
2023-02-26T11:17:13.315Z,94.90
2023-02-26T11:19:47.455Z,93.07
2023-02-26T11:22:14.425Z,91.10
2023-02-26T11:24:45.647Z,91.53
2023-02-26T11:27:24.793Z,91.08
2023-02-26T11:29:57.249Z,91.10
2023-02-26T11:32:30.250Z,89.79
2023-02-26T11:34:56.747Z,88.29
2023-02-26T11:37:28.348Z,87.72
2023-02-26T11:40:00.020Z,88.88
2023-02-26T11:42:27.294Z,83.91
2023-02-26T11:44:53.787Z,86.43
2023-02-26T11:47:26.538Z,91.32
2023-02-26T11:49:54.608Z,86.71
2023-02-26T11:52:35.768Z,84.90
2023-02-26T11:55:05.797Z,86.48
2023-02-26T11:57:32.882Z,87.05
2023-02-26T12:00:00.531Z,87.45
2023-02-26T12:02:34.384Z,87.25
2023-02-26T12:05:03.433Z,79.02
2023-02-26T12:07:29.873Z,84.91
2023-02-26T12:09:55.985Z,83.84
2023-02-26T12:12:45.588Z,84.60
2023-02-26T12:15:58.076Z,85.23
2023-02-26T12:18:36.735Z,79.90
2023-02-26T12:21:13.550Z,87.54
2023-02-26T12:23:54.778Z,84.88
2023-02-26T12:26:33.553Z,82.24
2023-02-26T12:29:18.623Z,82.44
2023-02-26T12:32:09.086Z,64.49
2023-02-26T12:34:56.143Z,66.40
2023-02-26T12:37:32.473Z,70.58
2023-02-26T12:40:20.198Z,77.95
2023-02-26T12:43:05.189Z,73.59
2023-02-26T12:45:55.175Z,74.40
2023-02-26T12:48:44.935Z,67.17
2023-02-26T12:51:32.339Z,69.83
2023-02-26T12:54:19.817Z,62.37
2023-02-26T12:57:10.786Z,62.74
2023-02-26T12:59:48.653Z,62.86
2023-02-26T13:02:47.293Z,57.57
2023-02-26T13:05:29.813Z,56.05
2023-02-26T13:08:32.757Z,56.91
2023-02-26T13:11:20.123Z,60.38
2023-02-26T13:14:00.283Z,70.88
2023-02-26T13:16:41.235Z,61.98
2023-02-26T13:19:28.563Z,61.09
2023-02-26T13:22:01.492Z,60.68
2023-02-26T13:24:36.138Z,55.08
2023-02-26T13:27:03.887Z,56.15
2023-02-26T13:29:58.993Z,57.15
2023-02-26T13:32:26.776Z,54.30
2023-02-26T13:35:00.261Z,54.65
2023-02-26T13:37:39.427Z,56.23
2023-02-26T13:40:23.671Z,57.85
2023-02-26T13:43:08.448Z,57.99
2023-02-26T13:45:53.533Z,56.06
2023-02-26T13:48:44.511Z,53.84
2023-02-26T13:51:30.906Z,51.53
2023-02-26T13:54:01.477Z,51.96
2023-02-26T13:56:30.668Z,51.52
2023-02-26T13:59:11.451Z,51.25
2023-02-26T14:01:47.340Z,52.01
2023-02-26T14:04:19.486Z,52.38
2023-02-26T14:06:47.919Z,52.15
2023-02-26T14:09:23.060Z,53.77
2023-02-26T14:11:55.314Z,53.71
2023-02-26T14:14:21.347Z,53.24
2023-02-26T14:17:08.832Z,51.60
2023-02-26T14:19:45.036Z,52.18
2023-02-26T14:22:19.685Z,52.08
2023-02-26T14:24:58.734Z,54.15
2023-02-26T14:27:27.512Z,53.90
2023-02-26T14:29:57.468Z,52.70
2023-02-26T14:32:52.257Z,52.51
2023-02-26T14:35:21.759Z,53.35
2023-02-26T14:37:54.632Z,53.67
2023-02-26T14:40:24.868Z,54.13
2023-02-26T14:42:54.280Z,54.50
2023-02-26T14:45:38.172Z,53.84
2023-02-26T14:48:06.552Z,53.33
2023-02-26T14:51:01.720Z,54.01
2023-02-26T14:53:46.298Z,52.30
2023-02-26T14:56:30.637Z,52.17
2023-02-26T14:59:08.234Z,52.19
2023-02-26T15:01:49.771Z,53.32
2023-02-26T15:04:28.086Z,52.58
2023-02-26T15:06:59.991Z,53.11
2023-02-26T15:09:52.968Z,53.20
2023-02-26T15:12:22.810Z,53.13
2023-02-26T15:14:59.069Z,52.65
2023-02-26T15:17:31.955Z,53.38
2023-02-26T15:20:35.229Z,51.77
2023-02-26T15:23:13.163Z,51.60
2023-02-26T15:25:42.671Z,51.14
2023-02-26T15:28:17.621Z,51.92
2023-02-26T15:30:46.977Z,52.45
2023-02-26T15:33:15.618Z,51.75
2023-02-26T15:35:42.698Z,52.55
2023-02-26T15:38:08.893Z,53.61
2023-02-26T15:40:36.830Z,53.50
2023-02-26T15:43:04.802Z,54.50
2023-02-26T15:45:38.019Z,53.50
2023-02-26T15:48:07.336Z,54.09
2023-02-26T15:50:37.871Z,54.08
2023-02-26T15:53:05.002Z,55.09
2023-02-26T15:55:35.954Z,54.00
2023-02-26T15:58:03.624Z,52.23
2023-02-26T16:00:32.839Z,52.95
2023-02-26T16:03:12.259Z,52.95
2023-02-26T16:05:40.604Z,52.85
2023-02-26T16:08:10.250Z,52.72
2023-02-26T16:10:39.947Z,53.06
2023-02-26T16:13:07.941Z,52.05
2023-02-26T16:15:37.419Z,52.42
2023-02-26T16:18:08.122Z,53.11
2023-02-26T16:20:40.565Z,54.32
2023-02-26T16:23:12.240Z,54.38
2023-02-26T16:25:49.572Z,55.26
2023-02-26T16:28:19.653Z,55.40
2023-02-26T16:30:48.593Z,55.72
2023-02-26T16:33:16.645Z,55.45
2023-02-26T16:35:48.747Z,55.83
2023-02-26T16:38:26.689Z,55.22
2023-02-26T16:41:05.380Z,55.72
2023-02-26T16:43:32.770Z,56.36
2023-02-26T16:46:01.279Z,55.75
2023-02-26T16:48:29.902Z,55.28
2023-02-26T16:51:11.404Z,55.09
2023-02-26T16:53:46.819Z,54.00
2023-02-26T16:56:18.712Z,54.58
2023-02-26T16:58:47.088Z,54.37
2023-02-26T17:01:16.888Z,55.04
2023-02-26T17:03:48.581Z,55.32
2023-02-26T17:06:18.297Z,54.76
2023-02-26T17:08:49.617Z,54.41
2023-02-26T17:11:24.049Z,54.50
2023-02-26T17:14:14.636Z,55.16
2023-02-26T17:16:40.929Z,55.44
2023-02-26T17:19:08.747Z,56.83
2023-02-26T17:21:39.913Z,55.72
2023-02-26T17:24:06.229Z,58.27
2023-02-26T17:26:32.442Z,56.77
2023-02-26T17:28:58.773Z,55.86
2023-02-26T17:31:25.857Z,56.99
2023-02-26T17:33:52.367Z,58.04
2023-02-26T17:36:19.613Z,57.17
2023-02-26T17:38:46.980Z,56.16
2023-02-26T17:41:17.802Z,57.96
2023-02-26T17:43:43.887Z,58.39
2023-02-26T17:46:11.618Z,57.43
2023-02-26T17:48:38.023Z,59.30
2023-02-26T17:51:04.252Z,57.59
2023-02-26T17:53:39.940Z,59.21
2023-02-26T17:56:25.931Z,59.04
2023-02-26T17:58:54.575Z,59.69
2023-02-26T18:01:22.610Z,60.69
2023-02-26T18:03:49.493Z,60.78
2023-02-26T18:06:16.209Z,63.47
2023-02-26T18:08:43.992Z,62.05
2023-02-26T18:11:12.095Z,61.20
2023-02-26T18:13:38.426Z,60.00
2023-02-26T18:16:05.703Z,58.91
2023-02-26T18:18:32.725Z,60.04
2023-02-26T18:20:59.272Z,62.88
2023-02-26T18:23:25.397Z,62.03
2023-02-26T18:25:52.994Z,63.39
2023-02-26T18:28:22.428Z,61.94
2023-02-26T18:30:49.028Z,64.54
2023-02-26T18:33:18.048Z,64.66
2023-02-26T18:35:46.353Z,65.37
2023-02-26T18:38:19.350Z,62.42
2023-02-26T18:40:46.477Z,62.25
2023-02-26T18:43:13.239Z,63.22
2023-02-26T18:45:43.599Z,61.77
2023-02-26T18:48:17.902Z,63.45
2023-02-26T18:50:45.328Z,66.24
2023-02-26T18:53:12.367Z,68.04
2023-02-26T18:55:38.526Z,67.91
2023-02-26T18:58:04.882Z,66.52
2023-02-26T19:00:31.380Z,70.16
2023-02-26T19:02:59.924Z,67.52
2023-02-26T19:05:26.316Z,65.80
2023-02-26T19:07:53.404Z,66.98
2023-02-26T19:10:20.047Z,66.14
2023-02-26T19:12:46.448Z,67.70
2023-02-26T19:15:12.990Z,65.86
2023-02-26T19:17:40.438Z,68.08
2023-02-26T19:20:07.525Z,67.79
2023-02-26T19:22:33.686Z,68.25
2023-02-26T19:24:59.758Z,69.67
2023-02-26T19:27:25.884Z,67.50
2023-02-26T19:29:52.111Z,69.38
2023-02-26T19:32:18.357Z,69.87
2023-02-26T19:34:44.521Z,70.22
2023-02-26T19:37:10.766Z,70.09
2023-02-26T19:39:37.478Z,72.02
2023-02-26T19:42:04.029Z,70.61
2023-02-26T19:44:31.857Z,69.49
2023-02-26T19:46:58.776Z,71.12
2023-02-26T19:49:25.251Z,71.84
2023-02-26T19:51:51.503Z,71.15
2023-02-26T19:54:17.739Z,71.25
2023-02-26T19:56:44.401Z,70.73
2023-02-26T19:59:11.679Z,72.05
2023-02-26T20:01:38.380Z,70.86
2023-02-26T20:04:04.493Z,71.96
2023-02-26T20:06:30.605Z,73.74
2023-02-26T20:08:56.712Z,75.84
2023-02-26T20:11:22.939Z,80.07
2023-02-26T20:13:49.242Z,79.41
2023-02-26T20:16:15.620Z,84.00
2023-02-26T20:18:42.120Z,84.25
2023-02-26T20:21:09.738Z,83.66
2023-02-26T20:23:37.531Z,82.58
2023-02-26T20:26:06.651Z,83.18
2023-02-26T20:28:32.965Z,84.07
2023-02-26T20:30:59.221Z,84.13
2023-02-26T20:33:25.621Z,89.07
2023-02-26T20:35:53.082Z,85.93
2023-02-26T20:38:20.221Z,84.26
2023-02-26T20:40:47.426Z,82.64
2023-02-26T20:43:13.710Z,83.74
2023-02-26T20:45:41.115Z,84.64
2023-02-26T20:48:07.969Z,85.34
2023-02-26T20:50:35.482Z,85.79
2023-02-26T20:53:03.207Z,85.42
2023-02-26T20:55:29.284Z,88.21
2023-02-26T20:57:55.899Z,85.09
2023-02-26T21:00:22.535Z,85.42
2023-02-26T21:02:48.825Z,84.52
2023-02-26T21:05:15.710Z,86.38
2023-02-26T21:07:41.887Z,85.39
2023-02-26T21:10:14.053Z,85.53
2023-02-26T21:12:40.396Z,86.85
2023-02-26T21:15:09.600Z,87.08
2023-02-26T21:17:37.952Z,88.61
2023-02-26T21:20:08.139Z,88.74
2023-02-26T21:22:34.963Z,88.68
2023-02-26T21:25:01.997Z,87.64
2023-02-26T21:27:28.096Z,90.76
2023-02-26T21:29:54.171Z,92.17
2023-02-26T21:32:20.291Z,90.21
2023-02-26T21:34:46.402Z,91.92
2023-02-26T21:37:12.497Z,91.89
2023-02-26T21:39:38.835Z,92.75
2023-02-26T21:42:06.690Z,92.32
2023-02-26T21:44:34.132Z,93.58
2023-02-26T21:47:01.305Z,96.22
2023-02-26T21:49:30.179Z,93.36
2023-02-26T21:51:57.312Z,95.38
2023-02-26T21:54:23.860Z,93.69
2023-02-26T21:56:49.944Z,94.18
2023-02-26T21:59:16.059Z,94.66
2023-02-26T22:01:42.204Z,93.85
2023-02-26T22:04:08.405Z,94.06
2023-02-26T22:06:34.581Z,93.77
2023-02-26T22:09:00.873Z,94.07
2023-02-26T22:11:27.319Z,93.95
2023-02-26T22:13:53.575Z,94.73
2023-02-26T22:16:19.714Z,92.87
2023-02-26T22:18:45.998Z,97.96
2023-02-26T22:21:12.081Z,95.79
2023-02-26T22:23:38.211Z,95.53
2023-02-26T22:26:04.499Z,96.92
2023-02-26T22:28:30.668Z,96.46
2023-02-26T22:30:58.518Z,96.19
2023-02-26T22:33:25.756Z,97.19
2023-02-26T22:35:55.825Z,99.19
2023-02-26T22:38:22.035Z,98.03
2023-02-26T22:40:48.199Z,98.08
2023-02-26T22:43:14.458Z,99.04
2023-02-26T22:45:40.635Z,98.26
2023-02-26T22:48:07.184Z,100.00
2023-02-26T22:50:34.063Z,100.00
2023-02-26T22:53:00.838Z,100.00
2023-02-26T22:55:27.076Z,100.00
2023-02-26T22:57:53.256Z,100.00
2023-02-26T23:00:20.429Z,100.00
2023-02-26T23:02:47.955Z,100.00
2023-02-26T23:05:14.650Z,100.00
2023-02-26T23:07:40.993Z,100.00
2023-02-26T23:10:10.883Z,100.00
2023-02-26T23:12:37.832Z,100.00
2023-02-26T23:15:05.555Z,100.00
2023-02-26T23:17:31.659Z,100.00
2023-02-26T23:19:57.742Z,100.00
2023-02-26T23:22:23.855Z,100.00
2023-02-26T23:24:49.924Z,100.00
2023-02-26T23:27:16.280Z,100.00
2023-02-26T23:29:45.605Z,100.00
2023-02-26T23:32:13.487Z,100.00
2023-02-26T23:34:39.821Z,100.00
2023-02-26T23:37:06.324Z,100.00
2023-02-26T23:39:32.517Z,100.00
2023-02-26T23:41:58.607Z,100.00
2023-02-26T23:44:25.492Z,100.00
2023-02-26T23:46:51.657Z,100.00
2023-02-26T23:49:17.942Z,100.00
2023-02-26T23:51:45.154Z,100.00
2023-02-26T23:54:12.145Z,100.00
2023-02-26T23:56:38.536Z,100.00
2023-02-26T23:59:04.752Z,100.00
